Time;durP1;ratioP1;P1;durP2;ratioP2;P2;SDS_P1;SDS_P2;PMS_P1;PMS_P2;Temp;Humidity;BMP_temperature;BMP_pressure;BME280_temperature;BME280_humidity;BME280_pressure;Samples;Min_cycle;Max_cycle;Signal;HPM_P1;HPM_P2
2021/12/06 00:01:05;;;;;;;24.27;15.07;;;6.00;99.90;;;;;;5070779;28;20561;-61
2021/12/06 00:03:43;;;;;;;21.33;13.17;;;5.90;99.90;;;;;;5082953;28;20208;-62
2021/12/06 00:06:10;;;;;;;21.63;14.03;;;6.10;99.90;;;;;;5086382;28;20188;-61
2021/12/06 00:08:36;;;;;;;23.07;13.70;;;6.20;99.90;;;;;;5071338;28;20190;-58
2021/12/06 00:11:07;;;;;;;23.73;13.97;;;6.30;99.90;;;;;;5094226;28;20181;-58
2021/12/06 00:13:38;;;;;;;23.57;14.00;;;6.30;99.90;;;;;;5095713;28;20299;-58
2021/12/06 00:16:08;;;;;;;20.07;12.97;;;6.20;99.90;;;;;;5094792;28;20188;-58
2021/12/06 00:18:35;;;;;;;22.73;15.43;;;6.10;99.90;;;;;;5090111;28;20518;-58
2021/12/06 00:21:01;;;;;;;24.60;13.43;;;6.20;99.90;;;;;;5095323;28;20181;-59
2021/12/06 00:23:27;;;;;;;26.40;15.67;;;6.30;99.90;;;;;;5091125;28;20634;-58
2021/12/06 00:25:54;;;;;;;25.40;15.37;;;6.10;99.90;;;;;;5066981;28;20196;-58
2021/12/06 00:28:19;;;;;;;25.40;15.13;;;6.10;99.90;;;;;;5088218;28;20181;-58
2021/12/06 00:30:45;;;;;;;26.23;14.50;;;6.10;99.90;;;;;;5076920;28;20220;-58
2021/12/06 00:33:11;;;;;;;23.70;14.40;;;6.20;99.90;;;;;;5074708;28;20813;-58
2021/12/06 00:35:37;;;;;;;23.43;14.43;;;6.20;99.90;;;;;;5077017;28;20646;-58
2021/12/06 00:38:02;;;;;;;28.67;15.37;;;6.10;99.90;;;;;;5088774;28;20463;-58
2021/12/06 00:40:43;;;;;;;26.13;16.07;;;6.10;99.90;;;;;;5088695;28;20185;-58
2021/12/06 00:43:08;;;;;;;29.00;14.17;;;6.10;99.90;;;;;;5085491;28;20220;-58
2021/12/06 00:45:34;;;;;;;24.60;14.60;;;6.30;99.90;;;;;;5089345;28;20304;-58
2021/12/06 00:48:01;;;;;;;22.97;13.33;;;6.30;99.90;;;;;;5088190;28;20193;-60
2021/12/06 00:50:31;;;;;;;29.37;15.50;;;6.20;99.90;;;;;;5059625;28;20242;-58
2021/12/06 00:52:57;;;;;;;26.67;14.90;;;6.20;99.90;;;;;;5092071;28;20215;-58
2021/12/06 00:55:23;;;;;;;22.27;15.57;;;6.30;99.90;;;;;;5093893;28;20181;-58
2021/12/06 00:57:52;;;;;;;26.40;15.17;;;6.30;99.90;;;;;;5086185;28;20190;-58
2021/12/06 01:00:25;;;;;;;25.00;15.63;;;6.10;99.90;;;;;;5074058;28;20192;-59
2021/12/06 01:02:52;;;;;;;21.23;14.57;;;6.20;99.90;;;;;;5075557;28;20184;-58
2021/12/06 01:05:22;;;;;;;26.13;14.80;;;6.30;99.90;;;;;;5086239;28;20204;-58
2021/12/06 01:07:48;;;;;;;22.10;14.03;;;6.20;99.90;;;;;;5094260;28;20189;-58
2021/12/06 01:10:14;;;;;;;29.60;15.73;;;6.10;99.90;;;;;;5063359;28;20207;-58
2021/12/06 01:12:40;;;;;;;23.00;15.17;;;6.00;99.90;;;;;;5088307;28;20204;-58
2021/12/06 01:15:07;;;;;;;27.30;16.63;;;5.90;99.90;;;;;;5073336;28;20196;-58
2021/12/06 01:17:33;;;;;;;23.87;14.20;;;5.90;99.90;;;;;;5091540;28;20204;-61
2021/12/06 01:20:00;;;;;;;27.60;15.23;;;5.90;99.90;;;;;;5076614;28;20184;-58
2021/12/06 01:22:39;;;;;;;25.30;15.60;;;5.80;99.90;;;;;;5085908;28;20192;-59
2021/12/06 01:25:17;;;;;;;31.27;17.13;;;5.70;99.90;;;;;;5075192;28;20178;-58
2021/12/06 01:28:02;;;;;;;27.03;16.70;;;5.60;99.90;;;;;;5076103;28;20848;-58
2021/12/06 01:30:37;;;;;;;28.57;15.50;;;5.70;99.90;;;;;;5060138;28;20181;-58
2021/12/06 01:33:32;;;;;;;28.63;15.80;;;5.70;99.90;;;;;;5089182;28;20200;-58
2021/12/06 01:41:20;;;;;;;26.13;16.43;;;5.80;99.90;;;;;;5072651;28;20556;-58
2021/12/06 01:44:15;;;;;;;26.70;17.60;;;5.80;99.90;;;;;;5091577;28;20200;-58
2021/12/06 01:46:47;;;;;;;28.77;17.63;;;5.90;99.90;;;;;;5080860;28;20269;-58
2021/12/06 01:49:14;;;;;;;28.03;17.53;;;5.90;99.90;;;;;;5083697;28;20192;-58
2021/12/06 01:51:40;;;;;;;28.63;17.23;;;5.90;99.90;;;;;;5093552;28;20705;-58
2021/12/06 01:54:07;;;;;;;31.40;19.00;;;5.90;99.90;;;;;;5074693;28;20327;-58
2021/12/06 01:56:33;;;;;;;32.83;19.90;;;6.00;99.90;;;;;;5093591;28;20276;-58
2021/12/06 01:58:59;;;;;;;30.10;17.50;;;6.00;99.90;;;;;;5074062;28;20705;-59
2021/12/06 02:01:25;;;;;;;27.23;17.03;;;5.90;99.90;;;;;;5076015;28;20186;-58
2021/12/06 02:03:51;;;;;;;31.50;19.17;;;6.00;99.90;;;;;;5046737;28;20216;-58
2021/12/06 02:06:17;;;;;;;30.90;17.80;;;6.00;99.90;;;;;;5093195;28;20185;-58
2021/12/06 02:08:42;;;;;;;33.40;17.77;;;5.90;99.90;;;;;;5093128;28;20192;-60
2021/12/06 02:11:09;;;;;;;31.07;18.73;;;6.00;99.90;;;;;;5090745;28;20189;-58
2021/12/06 02:13:49;;;;;;;33.13;18.97;;;5.90;99.90;;;;;;5075333;28;20296;-58
2021/12/06 02:16:18;;;;;;;30.93;18.40;;;6.00;99.90;;;;;;5077157;28;20185;-58
2021/12/06 02:18:51;;;;;;;31.83;19.27;;;6.00;99.90;;;;;;5075004;28;20638;-58
2021/12/06 02:21:23;;;;;;;32.23;19.10;;;5.80;99.90;;;;;;5074124;28;20653;-58
2021/12/06 02:23:49;;;;;;;30.67;18.40;;;5.70;99.90;;;;;;5082714;28;20189;-58
2021/12/06 02:26:16;;;;;;;30.47;20.10;;;5.60;99.90;;;;;;5046506;28;20193;-58
2021/12/06 02:28:42;;;;;;;31.40;20.27;;;5.60;99.90;;;;;;5069196;28;20215;-58
2021/12/06 02:31:09;;;;;;;36.30;20.33;;;5.60;99.90;;;;;;5072066;28;20217;-59
2021/12/06 02:33:35;;;;;;;32.00;21.03;;;5.50;99.90;;;;;;5072583;28;20200;-58
2021/12/06 02:36:01;;;;;;;34.60;18.97;;;5.50;99.90;;;;;;5084719;28;20184;-59
2021/12/06 02:38:27;;;;;;;34.27;19.00;;;5.40;99.90;;;;;;5093175;28;20187;-58
2021/12/06 02:40:53;;;;;;;35.27;20.87;;;5.30;99.90;;;;;;5092947;28;20189;-58
2021/12/06 02:43:19;;;;;;;29.63;19.20;;;5.30;99.90;;;;;;5056337;28;20200;-58
2021/12/06 02:45:45;;;;;;;33.37;18.93;;;5.30;99.90;;;;;;5074696;28;20271;-58
2021/12/06 02:48:13;;;;;;;33.67;18.57;;;5.30;99.90;;;;;;5092488;28;20271;-59
2021/12/06 02:50:47;;;;;;;35.23;20.90;;;5.20;99.90;;;;;;5069830;28;20642;-58
2021/12/06 02:53:15;;;;;;;34.03;20.43;;;5.20;99.90;;;;;;5081530;28;20558;-58
2021/12/06 02:55:42;;;;;;;32.40;19.40;;;5.00;99.90;;;;;;5091385;28;20538;-58
2021/12/06 02:58:22;;;;;;;37.40;19.90;;;4.90;99.90;;;;;;5086437;28;20228;-58
2021/12/06 03:00:53;;;;;;;31.90;20.47;;;4.70;99.90;;;;;;5092679;28;20185;-58
2021/12/06 03:03:20;;;;;;;35.47;21.90;;;4.80;99.90;;;;;;5086923;28;20185;-58
2021/12/06 03:05:48;;;;;;;32.87;20.33;;;4.80;99.90;;;;;;5090287;28;20195;-58
2021/12/06 03:08:14;;;;;;;32.83;19.10;;;5.00;99.90;;;;;;5087575;28;20196;-58
2021/12/06 03:10:39;;;;;;;37.93;21.07;;;4.90;99.90;;;;;;5083906;28;20181;-58
2021/12/06 03:13:06;;;;;;;37.47;21.37;;;4.80;99.90;;;;;;5092503;28;20573;-60
2021/12/06 03:15:32;;;;;;;32.70;19.67;;;4.90;99.90;;;;;;5088160;28;20192;-58
2021/12/06 03:17:58;;;;;;;36.97;22.10;;;4.90;99.90;;;;;;5074306;28;20192;-58
2021/12/06 03:20:23;;;;;;;31.50;18.47;;;4.90;99.90;;;;;;5087945;28;20181;-58
2021/12/06 03:22:50;;;;;;;30.47;19.23;;;4.80;99.90;;;;;;5070450;28;20271;-58
2021/12/06 03:25:18;;;;;;;32.57;20.00;;;4.90;99.90;;;;;;5074139;28;20688;-58
2021/12/06 03:27:44;;;;;;;36.70;20.77;;;4.90;99.90;;;;;;5076122;28;20657;-58
2021/12/06 03:30:12;;;;;;;31.93;20.23;;;4.90;99.90;;;;;;5063751;28;20177;-59
2021/12/06 03:32:37;;;;;;;29.97;19.40;;;4.80;99.90;;;;;;5087683;28;20654;-58
2021/12/06 03:35:04;;;;;;;33.90;19.73;;;4.80;99.90;;;;;;5085328;28;20196;-59
2021/12/06 03:37:29;;;;;;;31.20;19.60;;;4.70;99.90;;;;;;5069787;28;20192;-58
2021/12/06 03:39:55;;;;;;;34.00;19.60;;;4.70;99.90;;;;;;5080063;28;20181;-58
2021/12/06 03:42:23;;;;;;;31.10;18.50;;;4.60;99.90;;;;;;5088834;28;20204;-58
2021/12/06 03:44:49;;;;;;;33.00;18.93;;;4.60;99.90;;;;;;5054967;28;20543;-58
2021/12/06 03:47:19;;;;;;;34.00;19.00;;;4.60;99.90;;;;;;5090001;28;20587;-58
2021/12/06 03:49:45;;;;;;;31.97;19.20;;;4.50;99.90;;;;;;5090897;28;20174;-58
2021/12/06 03:52:13;;;;;;;30.27;17.40;;;4.50;99.90;;;;;;5075401;28;20299;-58
2021/12/06 03:54:40;;;;;;;33.57;19.70;;;4.40;99.90;;;;;;5093747;28;20653;-58
2021/12/06 03:57:06;;;;;;;32.47;19.10;;;4.40;99.90;;;;;;5074190;28;20246;-59
2021/12/06 03:59:33;;;;;;;34.37;19.67;;;4.40;99.90;;;;;;5077574;28;20196;-58
2021/12/06 04:01:59;;;;;;;34.87;19.77;;;4.30;99.90;;;;;;5087704;28;20185;-58
2021/12/06 04:04:25;;;;;;;41.70;21.17;;;4.30;99.90;;;;;;5077663;28;20548;-58
2021/12/06 04:06:51;;;;;;;42.73;23.90;;;4.30;99.90;;;;;;5085224;28;20556;-57
2021/12/06 04:09:17;;;;;;;39.43;22.03;;;4.30;99.90;;;;;;5089032;28;20199;-57
2021/12/06 04:11:45;;;;;;;36.80;21.00;;;4.30;99.90;;;;;;5092937;28;20271;-59
2021/12/06 04:14:11;;;;;;;35.47;20.80;;;4.20;99.90;;;;;;5070766;28;20224;-57
2021/12/06 04:16:37;;;;;;;34.40;20.50;;;4.20;99.90;;;;;;5095489;28;20707;-57
2021/12/06 04:19:05;;;;;;;38.23;22.87;;;4.20;99.90;;;;;;5092861;28;20223;-57
2021/12/06 04:21:31;;;;;;;38.27;21.10;;;4.10;99.90;;;;;;5080702;28;20585;-57
2021/12/06 04:23:57;;;;;;;42.70;21.97;;;4.10;99.90;;;;;;5083571;28;20189;-58
2021/12/06 04:26:24;;;;;;;40.17;22.63;;;4.10;99.90;;;;;;5054849;28;20181;-58
2021/12/06 04:28:58;;;;;;;37.70;21.40;;;4.10;99.90;;;;;;5085096;28;20200;-56
2021/12/06 04:31:26;;;;;;;41.13;23.53;;;4.00;99.90;;;;;;5089347;28;20176;-57
2021/12/06 04:33:52;;;;;;;46.53;22.53;;;4.00;99.90;;;;;;5071457;28;20204;-57
2021/12/06 04:36:17;;;;;;;35.20;20.83;;;3.90;99.90;;;;;;5091642;28;20254;-56
2021/12/06 04:38:43;;;;;;;38.00;20.47;;;3.90;99.90;;;;;;5070223;28;20247;-57
2021/12/06 04:41:09;;;;;;;33.87;20.77;;;3.90;99.90;;;;;;5074448;28;20642;-56
2021/12/06 04:43:34;;;;;;;36.23;21.20;;;3.90;99.90;;;;;;5095173;28;20616;-57
2021/12/06 04:46:00;;;;;;;35.60;19.93;;;3.90;99.90;;;;;;5094261;28;20271;-57
2021/12/06 04:48:26;;;;;;;35.90;20.30;;;3.90;99.90;;;;;;5076245;28;20656;-57
2021/12/06 04:50:52;;;;;;;39.37;22.37;;;3.90;99.90;;;;;;5087841;28;20662;-57
2021/12/06 04:53:25;;;;;;;36.53;21.53;;;3.90;99.90;;;;;;5094472;28;20208;-59
2021/12/06 04:56:04;;;;;;;33.67;21.57;;;3.90;99.90;;;;;;5087213;28;20192;-57
2021/12/06 04:58:34;;;;;;;38.17;21.10;;;3.90;99.90;;;;;;5091898;28;20187;-57
2021/12/06 05:01:09;;;;;;;38.87;20.03;;;4.10;99.90;;;;;;5067519;28;20536;-57
2021/12/06 05:03:37;;;;;;;33.97;19.70;;;4.20;99.90;;;;;;5092735;28;20221;-57
2021/12/06 05:06:14;;;;;;;46.23;22.97;;;4.30;99.90;;;;;;5094126;28;20271;-59
2021/12/06 05:08:47;;;;;;;47.70;24.97;;;4.40;99.90;;;;;;5082283;28;20192;-57
2021/12/06 05:11:13;;;;;;;56.40;26.23;;;4.40;99.90;;;;;;5076242;28;20185;-56
2021/12/06 05:13:41;;;;;;;54.23;27.13;;;4.40;99.90;;;;;;5089422;28;20206;-57
2021/12/06 05:16:07;;;;;;;52.77;23.63;;;4.50;99.90;;;;;;5090985;28;20197;-56
2021/12/06 05:18:32;;;;;;;58.03;27.57;;;4.50;99.90;;;;;;5085479;28;20200;-56
2021/12/06 05:20:58;;;;;;;43.77;25.03;;;4.50;99.90;;;;;;5083631;28;20228;-57
2021/12/06 05:23:24;;;;;;;55.03;24.97;;;4.50;99.90;;;;;;5058996;28;20660;-57
2021/12/06 05:25:50;;;;;;;63.00;24.43;;;4.60;99.90;;;;;;5092469;28;20276;-57
2021/12/06 05:28:21;;;;;;;77.43;26.77;;;4.70;99.90;;;;;;5093505;28;20671;-57
2021/12/06 05:30:48;;;;;;;77.50;26.30;;;4.90;99.90;;;;;;5051389;28;20633;-57
2021/12/06 05:33:28;;;;;;;47.33;23.17;;;4.70;99.90;;;;;;5089408;28;20205;-57
2021/12/06 05:35:53;;;;;;;48.50;23.57;;;4.50;99.90;;;;;;5076404;28;20188;-57
2021/12/06 05:38:19;;;;;;;62.07;23.97;;;4.20;99.90;;;;;;5093748;28;20275;-60
2021/12/06 05:40:47;;;;;;;68.87;23.80;;;4.00;99.90;;;;;;5075715;28;20641;-57
2021/12/06 05:43:13;;;;;;;73.77;23.87;;;4.20;99.90;;;;;;5084334;28;20192;-56
2021/12/06 05:45:39;;;;;;;65.13;24.23;;;4.40;99.90;;;;;;5089849;28;20271;-57
2021/12/06 05:48:05;;;;;;;78.77;25.43;;;3.90;99.90;;;;;;5074587;28;20588;-56
2021/12/06 05:50:31;;;;;;;46.50;23.87;;;3.80;99.90;;;;;;5071549;28;20189;-57
2021/12/06 05:52:57;;;;;;;66.43;25.73;;;3.90;99.90;;;;;;5087406;28;20262;-57
2021/12/06 05:55:27;;;;;;;59.50;23.83;;;4.20;99.90;;;;;;5090226;28;20213;-57
2021/12/06 05:57:55;;;;;;;70.37;26.37;;;4.40;99.90;;;;;;5089405;28;20177;-57
2021/12/06 06:00:23;;;;;;;49.63;23.07;;;4.60;99.90;;;;;;5093354;28;20641;-57
2021/12/06 06:02:49;;;;;;;52.90;24.67;;;4.60;99.90;;;;;;5084341;28;20258;-57
2021/12/06 06:05:18;;;;;;;67.03;24.80;;;4.50;99.90;;;;;;5086147;28;20638;-57
2021/12/06 06:07:44;;;;;;;72.03;26.30;;;4.30;99.90;;;;;;5082944;28;20220;-56
2021/12/06 06:10:10;;;;;;;54.53;23.80;;;4.30;99.90;;;;;;5089100;28;20230;-57
2021/12/06 06:12:36;;;;;;;58.07;27.03;;;4.30;99.90;;;;;;5077759;28;20201;-57
2021/12/06 06:15:02;;;;;;;61.33;24.40;;;4.30;99.90;;;;;;5077795;28;20204;-58
2021/12/06 06:17:32;;;;;;;78.73;27.97;;;4.10;99.90;;;;;;5071144;28;20234;-57
2021/12/06 06:19:59;;;;;;;71.33;25.30;;;4.30;99.90;;;;;;5081693;28;20638;-57
2021/12/06 06:22:24;;;;;;;47.10;26.40;;;4.20;99.90;;;;;;5083531;28;20601;-57
2021/12/06 06:24:50;;;;;;;67.13;27.50;;;4.10;99.90;;;;;;5086435;28;20200;-59
2021/12/06 06:27:16;;;;;;;68.50;25.37;;;4.20;99.90;;;;;;5074520;28;20538;-58
2021/12/06 06:29:42;;;;;;;61.03;25.33;;;4.00;99.90;;;;;;5092578;28;20180;-57
2021/12/06 06:32:08;;;;;;;63.07;22.67;;;3.80;99.90;;;;;;5065443;28;20228;-58
2021/12/06 06:34:34;;;;;;;52.00;25.13;;;4.00;99.90;;;;;;5082027;28;20253;-57
2021/12/06 06:37:00;;;;;;;65.40;24.30;;;4.00;99.90;;;;;;5051007;28;20193;-58
2021/12/06 06:39:27;;;;;;;67.47;25.17;;;3.70;99.90;;;;;;5087340;28;20196;-58
2021/12/06 06:41:53;;;;;;;53.53;25.07;;;3.80;99.90;;;;;;5084353;28;20582;-58
2021/12/06 06:44:20;;;;;;;78.80;25.23;;;4.00;99.90;;;;;;5063738;28;20660;-58
2021/12/06 06:46:47;;;;;;;53.73;25.67;;;3.80;99.90;;;;;;5086563;28;20185;-58
2021/12/06 06:49:14;;;;;;;49.30;22.30;;;3.80;99.90;;;;;;5091750;28;20189;-58
2021/12/06 06:51:40;;;;;;;60.57;26.07;;;3.80;99.90;;;;;;5090066;28;20215;-58
2021/12/06 06:54:06;;;;;;;64.30;25.17;;;3.90;99.90;;;;;;5087826;28;20602;-58
2021/12/06 06:56:32;;;;;;;56.30;25.27;;;4.10;99.90;;;;;;5091939;28;20180;-58
2021/12/06 06:58:58;;;;;;;53.37;25.47;;;4.20;99.90;;;;;;5081594;28;20189;-57
2021/12/06 07:01:24;;;;;;;61.30;24.37;;;4.30;99.90;;;;;;5086863;28;21772;-58
2021/12/06 07:03:53;;;;;;;40.53;23.77;;;4.40;99.90;;;;;;5091729;28;20188;-58
2021/12/06 07:06:22;;;;;;;72.43;25.23;;;4.30;99.90;;;;;;5092126;28;20188;-58
2021/12/06 07:08:49;;;;;;;51.13;24.10;;;4.30;99.90;;;;;;5091857;28;20193;-58
2021/12/06 07:11:14;;;;;;;51.33;23.97;;;4.10;99.90;;;;;;5087225;28;20203;-59
2021/12/06 07:13:40;;;;;;;68.10;25.50;;;4.20;99.90;;;;;;5081294;28;20301;-58
2021/12/06 07:16:07;;;;;;;52.37;25.50;;;4.20;99.90;;;;;;5073884;28;20196;-57
2021/12/06 07:18:33;;;;;;;60.63;25.17;;;4.40;99.90;;;;;;5081531;28;20254;-58
2021/12/06 07:21:00;;;;;;;54.90;23.93;;;4.30;99.90;;;;;;5092075;28;20641;-58
2021/12/06 07:23:25;;;;;;;49.93;23.13;;;4.10;99.90;;;;;;5086489;28;20277;-58
2021/12/06 07:25:51;;;;;;;53.40;23.73;;;4.10;99.90;;;;;;5094755;28;20275;-57
2021/12/06 07:28:17;;;;;;;48.77;23.13;;;4.10;99.90;;;;;;5093778;28;20181;-58
2021/12/06 07:30:43;;;;;;;42.63;22.27;;;4.20;99.90;;;;;;5095021;28;20185;-58
2021/12/06 07:33:08;;;;;;;39.53;22.13;;;4.30;99.90;;;;;;5089881;28;20213;-58
2021/12/06 07:35:34;;;;;;;45.13;24.07;;;4.40;99.90;;;;;;5095378;28;20188;-58
2021/12/06 07:38:03;;;;;;;44.47;23.43;;;4.50;99.90;;;;;;5074852;28;20187;-59
2021/12/06 07:40:29;;;;;;;44.53;23.10;;;4.40;99.90;;;;;;5086266;28;20209;-58
2021/12/06 07:42:55;;;;;;;54.67;23.70;;;4.30;99.90;;;;;;5077586;28;20195;-58
2021/12/06 07:45:22;;;;;;;50.87;23.07;;;4.40;99.90;;;;;;5087290;28;20268;-58
2021/12/06 07:47:48;;;;;;;50.23;22.33;;;4.30;99.90;;;;;;5076251;28;20222;-61
2021/12/06 07:50:20;;;;;;;48.57;22.03;;;4.30;99.90;;;;;;5092551;28;20196;-61
2021/12/06 07:52:46;;;;;;;55.93;24.00;;;4.10;99.90;;;;;;5090065;28;20284;-60
2021/12/06 07:55:14;;;;;;;38.57;20.50;;;4.20;99.90;;;;;;5075636;28;20655;-60
2021/12/06 07:57:41;;;;;;;50.67;24.93;;;4.20;99.90;;;;;;5092774;28;20190;-61
2021/12/06 08:00:15;;;;;;;51.57;22.20;;;4.40;99.90;;;;;;5093681;28;20189;-60
2021/12/06 08:02:41;;;;;;;43.30;20.23;;;4.30;99.90;;;;;;5093968;28;20214;-60
2021/12/06 08:07:54;;;;;;;48.20;22.87;;;4.30;99.90;;;;;;5088386;28;20208;-60
2021/12/06 08:10:19;;;;;;;65.87;24.23;;;4.20;99.90;;;;;;5084553;28;20231;-59
2021/12/06 08:12:45;;;;;;;46.93;22.97;;;4.10;99.90;;;;;;5068025;28;20228;-61
2021/12/06 08:15:11;;;;;;;70.97;24.60;;;4.00;99.90;;;;;;5094061;28;20185;-61
2021/12/06 08:17:37;;;;;;;77.40;23.00;;;4.30;99.90;;;;;;5094789;28;20502;-62
2021/12/06 08:20:05;;;;;;;71.67;23.87;;;4.40;99.90;;;;;;5094608;28;20183;-61
2021/12/06 08:22:31;;;;;;;50.03;23.87;;;4.20;99.90;;;;;;5077000;28;20181;-63
2021/12/06 08:24:57;;;;;;;61.00;23.20;;;4.10;99.90;;;;;;5093782;28;20184;-61
2021/12/06 08:27:23;;;;;;;71.03;26.43;;;4.30;99.90;;;;;;5075062;28;20187;-60
2021/12/06 08:29:49;;;;;;;63.57;23.90;;;4.40;99.90;;;;;;5074634;28;20197;-60
2021/12/06 08:32:14;;;;;;;69.73;25.20;;;4.50;99.90;;;;;;5071925;28;20645;-61
2021/12/06 08:34:41;;;;;;;72.90;25.80;;;4.60;99.90;;;;;;5064621;28;20549;-61
2021/12/06 08:37:09;;;;;;;51.77;24.93;;;4.70;99.90;;;;;;5055613;28;20188;-60
2021/12/06 08:39:35;;;;;;;67.67;26.50;;;4.80;99.90;;;;;;5068877;28;20270;-60
2021/12/06 08:42:00;;;;;;;65.63;26.37;;;4.80;99.90;;;;;;5071654;28;20184;-61
2021/12/06 08:44:26;;;;;;;90.47;27.27;;;4.80;99.90;;;;;;5075206;28;20185;-60
2021/12/06 08:46:52;;;;;;;74.30;29.20;;;4.80;99.90;;;;;;5084612;28;20189;-61
2021/12/06 08:49:18;;;;;;;80.83;28.73;;;4.90;99.90;;;;;;5070060;28;20521;-60
2021/12/06 08:51:49;;;;;;;75.50;26.63;;;4.90;99.90;;;;;;5080971;28;20193;-60
2021/12/06 08:54:18;;;;;;;73.80;26.90;;;4.90;99.90;;;;;;5090325;28;20721;-59
2021/12/06 08:56:46;;;;;;;79.00;30.07;;;4.70;99.90;;;;;;5067948;28;20185;-59
2021/12/06 08:59:12;;;;;;;61.50;26.40;;;4.70;99.90;;;;;;5094402;28;20302;-59
2021/12/06 09:01:39;;;;;;;57.83;26.53;;;4.80;99.90;;;;;;5073854;28;20217;-60
2021/12/06 09:04:09;;;;;;;62.40;28.10;;;4.70;99.90;;;;;;5094507;28;20208;-59
2021/12/06 09:06:36;;;;;;;61.57;26.83;;;4.90;99.90;;;;;;5087357;28;20187;-59
2021/12/06 09:09:05;;;;;;;55.47;23.30;;;5.00;99.90;;;;;;5075722;28;20192;-60
2021/12/06 09:11:31;;;;;;;68.60;28.17;;;5.00;99.90;;;;;;5089406;28;20245;-61
2021/12/06 09:13:57;;;;;;;63.47;26.00;;;5.20;99.90;;;;;;5089383;28;20707;-61
2021/12/06 09:16:23;;;;;;;55.80;25.13;;;5.20;99.90;;;;;;5059575;28;20216;-61
2021/12/06 09:18:49;;;;;;;61.83;27.13;;;5.20;99.90;;;;;;5057814;28;20322;-59
2021/12/06 09:21:18;;;;;;;62.13;26.27;;;5.20;99.90;;;;;;5075840;28;20207;-59
2021/12/06 09:23:45;;;;;;;60.93;24.50;;;5.00;99.90;;;;;;5087141;28;20223;-59
2021/12/06 09:26:11;;;;;;;66.97;24.47;;;5.20;99.90;;;;;;5074822;28;20188;-59
2021/12/06 09:28:37;;;;;;;67.40;26.10;;;5.10;99.90;;;;;;5071662;28;20533;-59
2021/12/06 09:31:04;;;;;;;46.93;22.13;;;5.10;99.90;;;;;;5090550;28;20181;-60
2021/12/06 09:33:31;;;;;;;42.40;18.50;;;5.00;99.90;;;;;;5055760;28;20251;-60
2021/12/06 09:35:59;;;;;;;41.80;18.90;;;5.00;99.90;;;;;;5088101;28;20279;-60
2021/12/06 09:38:34;;;;;;;33.90;18.97;;;5.10;99.90;;;;;;5075324;28;20181;-62
2021/12/06 09:41:02;;;;;;;37.47;17.87;;;5.30;99.90;;;;;;5076207;28;20185;-60
2021/12/06 09:43:27;;;;;;;40.90;19.13;;;5.30;99.90;;;;;;5074277;28;20633;-61
2021/12/06 09:45:54;;;;;;;40.33;19.53;;;5.20;99.90;;;;;;5093838;28;20203;-61
2021/12/06 09:48:20;;;;;;;38.83;20.33;;;5.10;99.90;;;;;;5073214;28;20180;-60
2021/12/06 09:50:56;;;;;;;38.73;17.87;;;5.00;99.90;;;;;;5093533;28;20188;-61
2021/12/06 09:53:26;;;;;;;44.13;18.73;;;5.10;99.90;;;;;;5074183;28;20649;-61
2021/12/06 09:55:54;;;;;;;42.27;18.97;;;5.10;99.90;;;;;;5070764;28;20196;-60
2021/12/06 09:58:20;;;;;;;35.50;19.33;;;5.10;99.90;;;;;;5080532;28;20226;-59
2021/12/06 10:00:52;;;;;;;39.67;21.33;;;4.70;99.90;;;;;;5071781;28;20220;-59
2021/12/06 10:03:23;;;;;;;39.43;22.83;;;4.70;99.90;;;;;;5091687;28;20192;-60
2021/12/06 10:05:50;;;;;;;50.97;22.67;;;4.60;99.90;;;;;;5088690;28;20185;-63
2021/12/06 10:08:16;;;;;;;44.90;22.10;;;4.50;99.90;;;;;;5084240;28;20192;-60
2021/12/06 10:10:42;;;;;;;43.00;20.20;;;4.50;99.90;;;;;;5085021;28;20184;-59
2021/12/06 10:13:08;;;;;;;48.57;22.27;;;4.50;99.90;;;;;;5084287;28;20261;-60
2021/12/06 10:15:36;;;;;;;49.73;24.43;;;4.10;99.90;;;;;;5081569;28;20196;-61
2021/12/06 10:18:03;;;;;;;37.13;21.87;;;4.20;99.90;;;;;;5063072;28;20212;-60
2021/12/06 10:20:30;;;;;;;55.00;22.67;;;4.20;99.90;;;;;;5075055;28;20187;-60
2021/12/06 10:22:57;;;;;;;48.80;23.60;;;4.40;99.90;;;;;;5092511;28;20200;-59
2021/12/06 10:25:34;;;;;;;48.97;24.07;;;4.20;99.90;;;;;;5073113;28;20309;-60
2021/12/06 10:28:03;;;;;;;52.93;25.17;;;4.30;99.90;;;;;;5072470;28;20343;-60
2021/12/06 10:30:30;;;;;;;42.20;22.87;;;4.10;99.90;;;;;;5075169;28;20238;-62
2021/12/06 10:33:07;;;;;;;56.17;26.50;;;4.10;99.90;;;;;;5072119;28;20214;-62
2021/12/06 10:35:33;;;;;;;44.00;23.07;;;4.20;99.90;;;;;;5074614;28;20188;-61
2021/12/06 10:37:59;;;;;;;46.47;23.60;;;4.40;99.90;;;;;;5073265;28;20181;-61
2021/12/06 10:40:29;;;;;;;38.87;20.27;;;4.40;99.90;;;;;;5089841;28;20184;-60
2021/12/06 10:42:56;;;;;;;45.90;23.97;;;4.50;99.90;;;;;;5084351;28;20184;-60
2021/12/06 10:45:33;;;;;;;41.93;23.20;;;4.60;99.90;;;;;;5087526;28;20552;-60
2021/12/06 10:48:22;;;;;;;39.67;21.17;;;4.60;99.90;;;;;;5092050;28;20199;-61
2021/12/06 10:50:57;;;;;;;42.33;21.10;;;4.60;99.90;;;;;;5089827;28;20259;-59
2021/12/06 10:53:27;;;;;;;37.57;20.17;;;4.70;99.90;;;;;;5066718;28;20196;-61
2021/12/06 10:55:56;;;;;;;37.80;20.20;;;4.80;99.90;;;;;;5090970;28;20184;-61
2021/12/06 10:58:26;;;;;;;42.73;19.03;;;5.00;99.90;;;;;;5074311;28;20164;-62
2021/12/06 11:00:56;;;;;;;37.87;18.93;;;5.10;99.90;;;;;;5089934;28;20197;-60
2021/12/06 11:03:25;;;;;;;31.87;17.77;;;5.20;99.90;;;;;;5080434;28;20218;-60
2021/12/06 11:06:02;;;;;;;34.70;20.17;;;5.30;99.90;;;;;;5073146;28;20225;-60
2021/12/06 11:08:29;;;;;;;32.87;19.10;;;5.30;99.90;;;;;;5088299;28;20196;-61
2021/12/06 11:11:02;;;;;;;34.50;18.77;;;5.50;99.90;;;;;;5090396;28;20204;-60
2021/12/06 11:13:34;;;;;;;31.00;17.70;;;5.50;99.90;;;;;;5081935;28;20570;-60
2021/12/06 11:16:14;;;;;;;29.67;15.97;;;5.60;99.90;;;;;;5091896;28;20192;-60
2021/12/06 11:18:54;;;;;;;23.17;14.37;;;5.60;99.90;;;;;;5086270;28;20637;-60
2021/12/06 11:21:34;;;;;;;29.47;14.90;;;5.60;99.90;;;;;;5088104;28;20176;-62
2021/12/06 11:24:08;;;;;;;25.97;15.63;;;5.60;99.90;;;;;;5072955;28;20184;-58
2021/12/06 11:26:40;;;;;;;25.17;14.33;;;5.50;99.90;;;;;;5072930;28;20179;-59
2021/12/06 11:29:10;;;;;;;25.90;14.70;;;5.50;99.90;;;;;;5069196;28;20626;-59
2021/12/06 11:31:37;;;;;;;23.73;14.57;;;5.60;99.90;;;;;;5073695;28;20268;-59
2021/12/06 11:34:05;;;;;;;24.80;15.20;;;5.60;99.90;;;;;;5068857;28;20209;-59
2021/12/06 11:36:32;;;;;;;23.37;15.03;;;5.70;99.90;;;;;;5085241;28;20182;-58
2021/12/06 11:39:15;;;;;;;22.80;14.03;;;5.90;99.90;;;;;;5073226;28;20185;-58
2021/12/06 11:41:45;;;;;;;27.87;13.57;;;6.00;99.90;;;;;;5073460;28;20633;-58
2021/12/06 11:44:32;;;;;;;22.03;12.63;;;6.00;99.90;;;;;;5090257;28;20205;-59
2021/12/06 11:47:01;;;;;;;23.97;13.63;;;6.00;99.90;;;;;;5086079;28;20642;-59
2021/12/06 11:49:55;;;;;;;19.27;12.80;;;6.10;99.90;;;;;;5073629;28;20196;-58
2021/12/06 11:52:32;;;;;;;21.90;13.93;;;6.30;99.90;;;;;;5072383;28;20184;-58
2021/12/06 11:55:06;;;;;;;22.90;13.43;;;6.30;99.90;;;;;;5073619;28;20659;-59
2021/12/06 11:57:38;;;;;;;19.20;13.23;;;6.30;99.90;;;;;;5088066;28;20635;-59
2021/12/06 12:00:15;;;;;;;22.33;11.87;;;6.20;99.90;;;;;;5089546;28;20172;-58
2021/12/06 12:02:51;;;;;;;21.47;12.90;;;6.20;99.90;;;;;;5088339;28;20641;-58
2021/12/06 12:05:38;;;;;;;20.33;11.93;;;6.30;99.90;;;;;;5073357;28;20628;-58
2021/12/06 12:08:11;;;;;;;17.63;12.00;;;6.50;99.90;;;;;;5076739;28;20181;-59
2021/12/06 12:10:50;;;;;;;18.63;11.93;;;6.70;99.90;;;;;;5083300;28;20195;-59
2021/12/06 12:13:30;;;;;;;21.33;12.90;;;6.60;99.90;;;;;;5088612;28;20201;-59
2021/12/06 12:16:12;;;;;;;16.67;10.47;;;6.70;99.90;;;;;;5065336;28;20188;-59
2021/12/06 12:18:41;;;;;;;21.40;11.13;;;6.70;99.90;;;;;;5068874;28;20177;-58
2021/12/06 12:21:08;;;;;;;16.20;10.93;;;6.90;99.90;;;;;;5058740;28;20318;-58
2021/12/06 12:23:35;;;;;;;16.30;10.57;;;7.00;99.90;;;;;;5074294;28;20692;-58
2021/12/06 12:26:06;;;;;;;18.20;11.53;;;7.00;99.90;;;;;;5066178;28;20177;-58
2021/12/06 12:31:22;;;;;;;12.43;8.73;;;6.90;99.90;;;;;;5083603;28;20183;-59
2021/12/06 12:33:48;;;;;;;10.23;7.27;;;6.90;99.90;;;;;;5076411;28;20209;-60
2021/12/06 12:36:20;;;;;;;12.27;8.10;;;7.00;99.90;;;;;;5073044;28;20197;-60
2021/12/06 12:38:52;;;;;;;11.53;8.53;;;6.90;99.90;;;;;;5082372;28;20215;-58
2021/12/06 12:41:21;;;;;;;12.97;8.17;;;6.90;99.90;;;;;;5067212;28;20195;-58
2021/12/06 12:44:07;;;;;;;13.07;8.53;;;7.00;99.90;;;;;;5092394;28;20223;-58
2021/12/06 12:46:38;;;;;;;13.20;8.17;;;7.10;99.90;;;;;;5070031;28;20187;-58
2021/12/06 12:49:13;;;;;;;12.83;6.80;;;7.10;99.90;;;;;;5088462;28;20234;-58
2021/12/06 12:51:47;;;;;;;10.60;6.63;;;7.10;99.90;;;;;;5093753;28;20168;-59
2021/12/06 12:54:32;;;;;;;14.50;8.20;;;7.20;99.90;;;;;;5072784;28;20612;-61
2021/12/06 12:57:03;;;;;;;10.67;7.27;;;7.10;99.90;;;;;;5067560;28;20209;-58